Terminal Aerodrome Forecast
Issued by NWS

Home | Current Version | Previous Version | Graphics & Text | Print | Product List | Glossary On
Versions: 1 2 3 4 5 6 7 8 9 10 11 12 13 14 15 16 17 18 19 20 21 22 23 24 25 26 27
000
FTUS43 KABR 171418 AAA
TAFPIR
TAF AMD
KPIR 171418Z 1714/1812 17015G24KT P6SM SKC
     FM172100 15019G28KT P6SM FEW110
     FM180300 14009KT P6SM OVC150
     FM180400 14014KT 6SM SHRA VCTS BKN080CB OVC150 WS020/16040KT
     FM180800 15007KT P6SM OVC100=

USA.gov is the U.S. government's official web portal to all federal, state and local government web resources and services.